Time;durP1;ratioP1;P1;durP2;ratioP2;P2;SDS_P1;SDS_P2;PMS_P1;PMS_P2;Temp;Humidity;BMP_temperature;BMP_pressure;BME280_temperature;BME280_humidity;BME280_pressure;Samples;Min_cycle;Max_cycle;Signal;HPM_P1;HPM_P2
2023/01/01 00:04:56;;;;;;;9.00;5.22;;;;;;;15.54;71.87;99427.77;4154588;84;28624;-84
2023/01/01 00:11:00;;;;;;;8.33;4.28;;;;;;;15.52;71.24;99426.66;4159867;84;28514;-86
2023/01/01 00:17:01;;;;;;;5.85;3.72;;;;;;;15.49;70.46;99425.83;4164607;84;28644;-85
2023/01/01 00:23:02;;;;;;;5.33;3.05;;;;;;;15.40;71.00;99426.80;4163888;84;28575;-84
2023/01/01 00:29:04;;;;;;;3.85;2.42;;;;;;;15.38;70.30;99427.59;4155450;83;28549;-84
2023/01/01 00:35:06;;;;;;;5.30;2.20;;;;;;;15.40;70.20;99433.56;4166023;83;28502;-84
2023/01/01 00:41:07;;;;;;;4.95;2.17;;;;;;;15.40;69.82;99442.25;4153068;83;28530;-84
2023/01/01 00:47:08;;;;;;;3.55;2.00;;;;;;;15.33;69.58;99450.02;4157954;83;28545;-84
2023/01/01 00:53:10;;;;;;;5.83;3.33;;;;;;;15.29;69.14;99455.67;4184675;83;28526;-85
2023/01/01 00:59:11;;;;;;;8.25;4.00;;;;;;;15.21;69.36;99447.98;4193605;83;28515;-87
2023/01/01 01:05:12;;;;;;;6.35;3.77;;;;;;;15.03;70.40;99443.14;4176917;84;28557;-85
2023/01/01 01:11:20;;;;;;;6.10;3.70;;;;;;;14.90;70.30;99443.52;4187576;84;28545;-84
2023/01/01 01:17:21;;;;;;;6.17;3.85;;;;;;;14.77;70.71;99436.56;4186805;83;28493;-84
2023/01/01 01:23:22;;;;;;;4.90;3.37;;;;;;;14.66;70.32;99431.52;4175008;84;28679;-84
2023/01/01 01:29:23;;;;;;;5.35;2.77;;;;;;;14.67;70.19;99436.38;4193257;83;28523;-84
2023/01/01 01:35:24;;;;;;;6.15;3.40;;;;;;;14.68;69.95;99432.61;4161868;83;28540;-84
2023/01/01 01:41:26;;;;;;;9.83;5.37;;;;;;;14.60;70.11;99443.33;4145014;83;28536;-81
2023/01/01 01:47:40;;;;;;;13.35;6.90;;;;;;;14.44;70.72;99439.56;4180593;84;28517;-83
2023/01/01 01:53:44;;;;;;;12.35;7.20;;;;;;;14.60;71.14;99433.34;4190077;83;28529;-83
2023/01/01 01:59:47;;;;;;;13.22;7.75;;;;;;;14.38;71.37;99431.91;4178082;83;28543;-82
2023/01/01 02:05:50;;;;;;;13.48;7.55;;;;;;;14.36;71.81;99436.20;4189789;83;28541;-82
2023/01/01 02:11:51;;;;;;;11.88;7.10;;;;;;;14.40;71.44;99428.42;4185268;84;28475;-81
2023/01/01 02:18:08;;;;;;;12.55;7.45;;;;;;;14.31;71.19;99438.84;4183426;84;28467;-83
2023/01/01 02:24:11;;;;;;;;;;;;;;;14.43;71.11;99425.76;4191856;83;28492;-84
2023/01/01 02:30:12;;;;;;;10.88;6.30;;;;;;;14.34;71.34;99417.25;4182378;83;20656;-83
2023/01/01 02:36:14;;;;;;;9.93;6.17;;;;;;;14.26;71.26;99422.52;4133583;84;28548;-85
2023/01/01 02:42:16;;;;;;;10.65;5.50;;;;;;;14.12;71.31;99416.64;4155591;84;28533;-83
2023/01/01 02:48:37;;;;;;;10.35;5.50;;;;;;;14.11;71.29;99413.66;4187425;84;28525;-84
2023/01/01 02:55:03;;;;;;;11.80;6.28;;;;;;;14.04;71.35;99413.78;4168175;84;28551;-82
2023/01/01 03:01:14;;;;;;;8.68;4.85;;;;;;;14.05;71.68;99411.37;4174296;84;28569;-83
2023/01/01 03:07:28;;;;;;;9.28;5.60;;;;;;;13.96;71.83;99397.16;4170502;84;28492;-82
2023/01/01 03:13:45;;;;;;;11.30;6.33;;;;;;;13.99;71.61;99403.42;4141525;84;28526;-82
2023/01/01 03:19:48;;;;;;;10.23;5.92;;;;;;;13.97;71.76;99397.45;4093244;84;28488;-83
2023/01/01 03:25:53;;;;;;;10.43;5.70;;;;;;;13.83;72.45;99396.94;4110579;84;28531;-82
2023/01/01 03:31:55;;;;;;;9.78;5.72;;;;;;;13.55;72.85;99391.87;4101535;84;28563;-82
2023/01/01 03:37:58;;;;;;;9.93;5.65;;;;;;;13.39;73.68;99400.47;4161412;84;28490;-83
2023/01/01 03:44:24;;;;;;;10.80;5.70;;;;;;;13.25;74.48;99409.90;4157675;83;28645;-81
2023/01/01 03:50:29;;;;;;;9.33;5.33;;;;;;;13.08;75.29;99413.37;4170178;84;28553;-82
2023/01/01 03:56:44;;;;;;;12.18;6.33;;;;;;;13.08;75.94;99420.12;4172862;84;28553;-83
2023/01/01 04:03:00;;;;;;;9.40;5.67;;;;;;;12.92;76.89;99424.37;4176251;84;28582;-83
2023/01/01 04:09:03;;;;;;;10.35;5.92;;;;;;;12.78;77.68;99425.15;4168102;84;28513;-83
2023/01/01 04:15:05;;;;;;;10.45;6.05;;;;;;;12.45;78.78;99420.34;4199808;83;28517;-83
2023/01/01 04:21:06;;;;;;;11.08;6.12;;;;;;;12.37;80.56;99433.11;4179593;84;28633;-83
2023/01/01 04:27:07;;;;;;;10.98;6.28;;;;;;;12.05;83.61;99436.65;4153947;84;28551;-83
2023/01/01 04:33:08;;;;;;;11.43;6.17;;;;;;;12.30;83.43;99441.02;4191132;83;28502;-83
2023/01/01 04:39:10;;;;;;;9.18;5.40;;;;;;;12.19;83.56;99444.81;4195345;83;28524;-81
2023/01/01 04:45:13;;;;;;;13.22;5.55;;;;;;;11.93;84.71;99440.62;4173938;83;28488;-83
2023/01/01 04:51:16;;;;;;;8.93;5.22;;;;;;;12.07;83.04;99444.78;4163980;83;28553;-82
2023/01/01 04:57:17;;;;;;;11.20;5.42;;;;;;;11.98;84.04;99442.92;4197156;83;28571;-82
2023/01/01 05:03:18;;;;;;;8.45;4.83;;;;;;;11.78;84.17;99442.39;4194568;83;28540;-81
2023/01/01 05:09:20;;;;;;;9.13;5.00;;;;;;;11.53;86.78;99436.09;4183616;83;28573;-82
2023/01/01 05:15:22;;;;;;;11.30;5.60;;;;;;;11.58;86.72;99448.86;4197478;83;28563;-83
2023/01/01 05:21:30;;;;;;;11.15;5.47;;;;;;;11.55;88.21;99447.98;4198061;83;28485;-83
2023/01/01 05:27:32;;;;;;;8.88;5.20;;;;;;;11.77;86.81;99448.31;4198220;83;28491;-82
2023/01/01 05:33:33;;;;;;;9.53;5.33;;;;;;;11.71;84.72;99454.61;4197873;83;28571;-82
2023/01/01 05:39:35;;;;;;;9.73;5.45;;;;;;;11.74;84.81;99451.98;4198711;83;28501;-82
2023/01/01 05:45:37;;;;;;;10.55;5.67;;;;;;;11.69;86.28;99464.25;4187140;83;28557;-82
2023/01/01 05:51:38;;;;;;;13.10;6.78;;;;;;;11.69;86.08;99465.59;4191317;83;28559;-81
2023/01/01 05:57:39;;;;;;;9.18;5.20;;;;;;;11.57;86.81;99458.00;4195608;83;28535;-82
2023/01/01 06:03:42;;;;;;;9.58;5.87;;;;;;;11.26;87.12;99461.17;4179001;83;28555;-82
2023/01/01 06:09:44;;;;;;;10.60;5.78;;;;;;;11.23;87.60;99491.24;4194239;83;28533;-82
2023/01/01 06:15:49;;;;;;;10.90;5.55;;;;;;;11.20;87.68;99506.50;4180359;83;28487;-82
2023/01/01 06:21:50;;;;;;;8.55;4.58;;;;;;;11.40;87.72;99521.91;4167207;83;28490;-83
2023/01/01 06:27:51;;;;;;;10.70;4.60;;;;;;;11.36;87.89;99535.50;4141698;83;28535;-82
2023/01/01 06:33:52;;;;;;;6.65;4.08;;;;;;;11.34;88.46;99538.11;4184526;83;28518;-83
2023/01/01 06:39:53;;;;;;;9.78;4.90;;;;;;;11.69;87.78;99550.44;4188042;83;28516;-83
2023/01/01 06:46:00;;;;;;;8.93;5.17;;;;;;;12.18;85.88;99550.16;4188925;84;28548;-84
2023/01/01 06:52:01;;;;;;;12.18;6.08;;;;;;;12.70;83.50;99553.64;4175304;84;28497;-84
2023/01/01 06:58:08;;;;;;;12.35;6.70;;;;;;;12.87;81.41;99563.77;4180597;83;28495;-82
2023/01/01 07:04:07;;;;;;;11.70;6.30;;;;;;;13.02;80.50;99562.76;4184005;84;28619;-85
2023/01/01 07:10:08;;;;;;;11.12;6.53;;;;;;;13.04;80.11;99574.14;4187047;83;28549;-83
2023/01/01 07:16:10;;;;;;;12.82;6.72;;;;;;;13.17;79.66;99583.05;4182857;83;28498;-84
2023/01/01 07:22:11;;;;;;;12.65;6.72;;;;;;;13.24;79.01;99593.22;4178101;84;28486;-84
2023/01/01 07:28:12;;;;;;;11.25;6.45;;;;;;;13.21;79.24;99601.25;4180348;84;28521;-87
2023/01/01 07:34:15;;;;;;;13.55;7.35;;;;;;;13.16;78.83;99613.30;4185240;84;28549;-87
2023/01/01 07:40:16;;;;;;;14.05;7.37;;;;;;;13.23;78.52;99616.71;4184226;83;28509;-88
2023/01/01 07:46:18;;;;;;;14.25;7.70;;;;;;;13.41;77.52;99619.52;4188306;83;28518;-86
2023/01/01 07:52:19;;;;;;;15.32;7.90;;;;;;;13.55;77.02;99620.95;4184546;83;28572;-88
2023/01/01 07:58:21;;;;;;;12.35;6.78;;;;;;;13.58;76.31;99627.22;4185779;83;28565;-86
2023/01/01 08:04:23;;;;;;;11.20;6.60;;;;;;;13.77;76.15;99637.38;4185040;83;28520;-86
2023/01/01 08:10:24;;;;;;;13.20;7.45;;;;;;;13.89;75.03;99631.92;4193285;83;28573;-87
2023/01/01 08:16:25;;;;;;;13.80;7.58;;;;;;;14.12;74.56;99639.70;4178950;84;28504;-90
2023/01/01 08:22:26;;;;;;;13.15;7.50;;;;;;;14.30;73.89;99654.92;4184223;83;28518;-90
2023/01/01 08:28:28;;;;;;;13.62;7.92;;;;;;;14.52;73.01;99652.06;4198046;84;28583;-87
2023/01/01 08:34:29;;;;;;;14.40;7.92;;;;;;;14.68;72.50;99662.12;4162769;84;28539;-87
2023/01/01 08:40:31;;;;;;;11.65;7.92;;;;;;;14.62;71.67;99670.67;4162085;84;28513;-85
2023/01/01 08:46:32;;;;;;;14.40;7.80;;;;;;;14.57;72.16;99667.86;4158362;84;28514;-86
2023/01/01 08:52:33;;;;;;;13.32;7.80;;;;;;;15.01;71.36;99690.33;4158221;84;28596;-86
2023/01/01 08:58:36;;;;;;;13.58;7.75;;;;;;;15.14;70.29;99704.09;4133116;84;28521;-84
2023/01/01 09:04:37;;;;;;;12.98;7.40;;;;;;;15.24;70.36;99710.20;4145646;84;28532;-84
2023/01/01 09:10:39;;;;;;;12.35;6.90;;;;;;;15.29;70.02;99718.43;4159295;84;28537;-85
2023/01/01 09:16:40;;;;;;;13.88;7.25;;;;;;;15.42;70.32;99726.77;4159761;84;28492;-84
2023/01/01 09:22:41;;;;;;;15.05;7.25;;;;;;;15.38;69.76;99718.83;4142909;84;28504;-83
2023/01/01 09:28:42;;;;;;;14.43;7.70;;;;;;;15.23;69.92;99719.95;4152716;85;28498;-83
2023/01/01 09:34:43;;;;;;;15.20;8.30;;;;;;;15.13;70.03;99717.35;4145409;83;28551;-84
2023/01/01 09:40:54;;;;;;;15.08;8.03;;;;;;;14.99;70.51;99703.30;4184864;83;28542;-84
2023/01/01 09:46:58;;;;;;;14.65;7.87;;;;;;;14.83;70.79;99708.14;4184444;83;28527;-84
2023/01/01 09:53:21;;;;;;;16.02;8.43;;;;;;;14.61;71.32;99707.44;4178193;84;28526;-84
2023/01/01 09:59:24;;;;;;;14.85;8.90;;;;;;;14.64;71.74;99693.45;4182411;83;28553;-84
2023/01/01 10:05:55;;;;;;;15.30;8.68;;;;;;;14.56;72.10;99693.83;4201371;84;28569;-83
2023/01/01 10:12:09;;;;;;;30.48;20.72;;;;;;;14.61;72.06;99693.91;4159698;84;28485;-85
2023/01/01 10:18:22;;;;;;;14.23;9.13;;;;;;;14.82;71.53;99661.83;4183031;83;28616;-81
2023/01/01 10:24:30;;;;;;;11.97;7.10;;;;;;;14.97;70.75;99649.93;4195679;84;28553;-82
2023/01/01 10:30:31;;;;;;;12.07;7.03;;;;;;;15.00;70.63;99648.08;4186807;84;28632;-82
2023/01/01 10:36:34;;;;;;;13.88;6.85;;;;;;;15.17;69.75;99675.16;4183721;84;28557;-81
2023/01/01 10:42:36;;;;;;;12.50;6.33;;;;;;;15.31;68.79;99641.80;4171944;83;28533;-81
2023/01/01 10:48:37;;;;;;;12.50;6.97;;;;;;;15.47;68.96;99651.52;4170177;84;28537;-81
2023/01/01 10:54:39;;;;;;;10.65;6.62;;;;;;;15.60;68.29;99650.33;4156491;84;28466;-81
2023/01/01 11:00:40;;;;;;;13.35;7.05;;;;;;;15.77;67.84;99644.86;4189170;83;28556;-80
2023/01/01 11:06:42;;;;;;;14.15;7.60;;;;;;;15.88;67.06;99645.83;4181579;84;28545;-82
2023/01/01 11:12:44;;;;;;;12.65;7.70;;;;;;;15.73;67.00;99632.89;4160743;83;29034;-82
2023/01/01 11:18:45;;;;;;;14.80;7.20;;;;;;;16.13;66.14;99626.89;4185795;83;28545;-81
2023/01/01 11:24:50;;;;;;;12.75;7.35;;;;;;;16.34;65.64;99620.34;4177526;84;28536;-81
2023/01/01 11:31:01;;;;;;;10.68;6.25;;;;;;;16.61;65.50;99612.22;4171622;84;28537;-81
2023/01/01 11:37:15;;;;;;;11.97;6.72;;;;;;;16.90;65.14;99602.95;4142286;84;29116;-81
2023/01/01 11:43:24;;;;;;;12.18;6.53;;;;;;;17.13;64.06;99603.17;4186524;84;28548;-81
2023/01/01 11:49:27;;;;;;;10.65;6.70;;;;;;;17.28;63.43;99591.03;4186451;84;28547;-80
2023/01/01 11:55:36;;;;;;;10.32;5.85;;;;;;;17.30;62.79;99594.85;4178565;84;28529;-81
2023/01/01 12:01:49;;;;;;;12.40;6.75;;;;;;;17.45;63.19;99587.33;4171253;84;28575;-81
2023/01/01 12:07:51;;;;;;;9.68;6.05;;;;;;;17.41;62.66;99593.83;4185395;84;28589;-82
2023/01/01 12:14:12;;;;;;;11.45;6.33;;;;;;;17.49;62.61;99588.43;4196961;83;28517;-82
2023/01/01 12:20:30;;;;;;;10.78;6.65;;;;;;;17.56;62.59;99592.27;4189021;83;28538;-83
2023/01/01 12:26:55;;;;;;;10.38;6.22;;;;;;;17.64;61.31;99597.73;4178881;83;28537;-82
2023/01/01 12:33:06;;;;;;;11.12;6.47;;;;;;;17.77;61.54;99594.55;4199914;84;28568;-82
2023/01/01 12:39:33;;;;;;;9.50;5.92;;;;;;;17.58;61.52;99598.81;4179227;84;28565;-82
2023/01/01 12:45:53;;;;;;;12.28;6.12;;;;;;;17.43;61.58;99608.50;4179777;84;28587;-83
2023/01/01 12:52:21;;;;;;;10.35;6.80;;;;;;;17.39;61.53;99602.80;4204911;82;28556;-82
2023/01/01 12:58:41;;;;;;;10.45;5.83;;;;;;;17.30;61.72;99588.06;4180346;84;28517;-82
2023/01/01 13:04:44;;;;;;;10.13;6.60;;;;;;;17.33;61.97;99596.20;4169092;84;28601;-82
2023/01/01 13:10:49;;;;;;;11.10;6.83;;;;;;;17.27;63.62;99584.48;4181414;83;28481;-82
2023/01/01 13:16:53;;;;;;;11.50;6.72;;;;;;;17.16;62.83;99599.92;4152366;84;28497;-82
2023/01/01 13:22:56;;;;;;;12.55;7.03;;;;;;;17.21;63.02;99599.14;4178728;84;28548;-82
2023/01/01 13:29:01;;;;;;;12.40;7.17;;;;;;;17.16;63.00;99590.94;4193220;83;28540;-82
2023/01/01 13:35:06;;;;;;;14.35;8.48;;;;;;;17.01;63.03;99615.56;4183929;83;28617;-83
2023/01/01 13:41:30;;;;;;;15.15;8.43;;;;;;;16.90;63.28;99628.75;4224865;83;28537;-83
2023/01/01 13:47:39;;;;;;;14.75;7.80;;;;;;;16.85;63.61;99633.60;4166925;83;28502;-82
2023/01/01 13:53:55;;;;;;;12.43;7.17;;;;;;;16.83;64.04;99635.20;4141894;82;28542;-82
2023/01/01 14:00:08;;;;;;;13.60;8.28;;;;;;;16.65;64.09;99658.13;4100758;85;28518;-82
2023/01/01 14:06:14;;;;;;;13.20;7.22;;;;;;;16.50;64.92;99669.64;4165674;83;28563;-82
2023/01/01 14:12:20;;;;;;;12.47;6.65;;;;;;;16.48;65.65;99675.03;4158489;84;28645;-81
2023/01/01 14:18:33;;;;;;;12.82;7.05;;;;;;;16.36;66.03;99673.84;4204178;82;28560;-80
2023/01/01 14:24:37;;;;;;;12.68;7.05;;;;;;;16.14;66.31;99662.44;4084398;84;28558;-82
2023/01/01 14:30:42;;;;;;;13.55;7.37;;;;;;;15.92;66.78;99660.55;4140690;83;28556;-80
2023/01/01 14:36:48;;;;;;;14.07;8.20;;;;;;;15.73;67.88;99666.77;4071430;84;28545;-83
2023/01/01 14:42:49;;;;;;;;;;;;;;;15.50;68.39;99668.63;4170654;83;28582;-81
2023/01/01 14:48:56;;;;;;;11.83;7.22;;;;;;;15.22;69.34;99672.27;4179839;82;20201;-83
2023/01/01 14:54:59;;;;;;;16.20;7.80;;;;;;;15.13;69.97;99678.60;4192417;83;28532;-83
2023/01/01 15:01:14;;;;;;;15.88;8.30;;;;;;;15.00;70.80;99677.05;4123076;83;28551;-82
2023/01/01 15:07:24;;;;;;;18.90;9.03;;;;;;;14.76;71.68;99696.95;4143617;83;28575;-83
2023/01/01 15:13:27;;;;;;;15.53;8.48;;;;;;;14.63;73.05;99706.66;4130412;83;28607;-85
2023/01/01 15:19:29;;;;;;;15.38;8.13;;;;;;;14.49;73.87;99701.55;4115721;83;28536;-84
2023/01/01 15:25:34;;;;;;;15.35;8.13;;;;;;;14.33;74.93;99716.65;4131064;83;28574;-84
2023/01/01 15:31:42;;;;;;;16.52;8.85;;;;;;;14.29;75.99;99729.53;4132800;83;28501;-83
2023/01/01 15:37:48;;;;;;;13.15;8.00;;;;;;;14.20;76.35;99730.45;4166735;83;28558;-84
2023/01/01 15:43:50;;;;;;;19.07;9.10;;;;;;;14.05;77.93;99731.74;4198880;83;28560;-81
2023/01/01 15:50:09;;;;;;;18.07;8.58;;;;;;;14.01;78.88;99725.72;4187184;83;28573;-82
2023/01/01 15:56:13;;;;;;;16.23;9.15;;;;;;;13.92;79.59;99738.24;4181655;83;28549;-82
2023/01/01 16:02:20;;;;;;;19.62;10.08;;;;;;;13.76;81.59;99741.13;4199553;83;28555;-82
2023/01/01 16:08:22;;;;;;;17.80;9.43;;;;;;;13.68;83.55;99748.74;4192097;82;28533;-82
2023/01/01 16:14:23;;;;;;;21.48;10.85;;;;;;;13.58;84.47;99748.79;4172273;84;28552;-82
2023/01/01 16:20:25;;;;;;;22.35;11.33;;;;;;;13.55;85.89;99757.91;4187818;83;28583;-82
2023/01/01 16:26:28;;;;;;;21.02;11.50;;;;;;;13.56;86.04;99764.96;4174880;83;28438;-83
2023/01/01 16:32:29;;;;;;;21.30;11.35;;;;;;;13.38;87.82;99760.73;4184684;83;28489;-84
2023/01/01 16:38:34;;;;;;;20.90;10.53;;;;;;;13.35;88.09;99771.17;4203353;83;28575;-82
2023/01/01 16:44:42;;;;;;;17.52;10.13;;;;;;;13.47;87.58;99765.30;4184019;83;28557;-83
2023/01/01 16:50:45;;;;;;;20.30;10.13;;;;;;;13.15;90.65;99779.05;4156514;84;28615;-87
2023/01/01 16:56:48;;;;;;;20.65;10.15;;;;;;;13.07;90.95;99788.30;4157660;84;28572;-83
2023/01/01 17:02:53;;;;;;;21.45;10.82;;;;;;;12.95;92.39;99798.20;4164341;83;28494;-84
2023/01/01 17:08:54;;;;;;;18.87;10.60;;;;;;;12.83;92.90;99800.32;4161655;84;28511;-84
2023/01/01 17:14:55;;;;;;;19.55;10.88;;;;;;;12.69;93.94;99801.55;4137173;84;28490;-84
2023/01/01 17:21:03;;;;;;;23.42;12.63;;;;;;;12.61;94.38;99785.66;4184737;82;28542;-84
2023/01/01 17:27:04;;;;;;;25.67;13.53;;;;;;;12.49;95.21;99776.98;4197299;83;28530;-83
2023/01/01 17:33:06;;;;;;;27.15;14.87;;;;;;;12.55;95.44;99769.86;4194553;82;28509;-83
2023/01/01 17:39:11;;;;;;;28.07;15.50;;;;;;;12.64;96.38;99777.11;4185953;83;28534;-84
2023/01/01 17:45:12;;;;;;;29.37;14.90;;;;;;;12.54;96.41;99777.11;4208815;82;28475;-80
2023/01/01 17:51:17;;;;;;;27.77;14.78;;;;;;;12.30;97.30;99775.33;4187008;82;28570;-82
2023/01/01 17:57:18;;;;;;;28.02;13.40;;;;;;;12.29;97.78;99773.69;4189239;82;28520;-85
2023/01/01 18:03:21;;;;;;;25.40;13.80;;;;;;;12.05;96.65;99791.86;4208605;82;28542;-82
2023/01/01 18:09:24;;;;;;;29.63;17.02;;;;;;;12.00;98.04;99795.19;4197628;83;28550;-83
2023/01/01 18:15:28;;;;;;;25.10;15.03;;;;;;;12.36;100.00;99795.48;4194482;82;28526;-84
2023/01/01 18:21:36;;;;;;;26.35;15.03;;;;;;;12.03;100.00;99788.56;4192392;83;28588;-84
2023/01/01 18:27:37;;;;;;;30.15;15.85;;;;;;;11.93;99.98;99793.61;4197795;83;28549;-82
2023/01/01 18:33:39;;;;;;;27.45;14.85;;;;;;;11.87;100.00;99798.02;4194399;83;28556;-82
2023/01/01 18:39:42;;;;;;;26.95;14.53;;;;;;;11.56;100.00;99803.75;4178997;83;28529;-82
2023/01/01 18:45:45;;;;;;;31.87;15.28;;;;;;;11.23;100.00;99799.42;4188584;83;28568;-86
2023/01/01 18:51:49;;;;;;;25.57;14.30;;;;;;;11.05;100.00;99810.38;4178871;83;28473;-85
2023/01/01 18:58:11;;;;;;;27.20;14.95;;;;;;;11.07;100.00;99802.11;4194849;83;28583;-86
2023/01/01 19:04:14;;;;;;;26.50;14.45;;;;;;;11.18;100.00;99794.69;4199358;83;28587;-85
2023/01/01 19:10:16;;;;;;;34.13;17.40;;;;;;;10.73;100.00;99803.60;4191054;82;28528;-85
2023/01/01 19:16:31;;;;;;;32.73;17.65;;;;;;;11.01;100.00;99810.52;4197804;83;28559;-83
2023/01/01 19:22:33;;;;;;;26.00;14.63;;;;;;;11.00;100.00;99807.53;4196262;83;28514;-81
2023/01/01 19:28:36;;;;;;;33.55;17.25;;;;;;;10.46;100.00;99817.13;4185605;83;28551;-84
2023/01/01 19:34:39;;;;;;;35.78;17.77;;;;;;;10.59;100.00;99818.95;4180544;83;28534;-84
2023/01/01 19:40:43;;;;;;;41.63;22.27;;;;;;;10.46;100.00;99827.38;4182701;83;28984;-80
2023/01/01 19:46:44;;;;;;;28.38;16.17;;;;;;;10.74;100.00;99829.45;4188403;83;28583;-81
2023/01/01 19:52:47;;;;;;;31.82;15.55;;;;;;;10.43;100.00;99844.44;4192369;83;28555;-81
2023/01/01 19:58:50;;;;;;;28.40;16.25;;;;;;;10.14;100.00;99851.89;4168279;83;28494;-83
2023/01/01 20:04:51;;;;;;;32.65;17.25;;;;;;;10.00;100.00;99840.36;4193573;83;28546;-81
2023/01/01 20:10:58;;;;;;;30.97;16.82;;;;;;;9.93;100.00;99856.98;4206175;83;28502;-85
2023/01/01 20:17:00;;;;;;;31.87;16.82;;;;;;;9.84;100.00;99866.58;4197797;83;28520;-85
2023/01/01 20:23:03;;;;;;;27.55;15.55;;;;;;;9.73;100.00;99862.63;4174543;83;28564;-83
2023/01/01 20:29:20;;;;;;;30.27;16.15;;;;;;;9.56;100.00;99866.77;4194570;83;28605;-87
2023/01/01 20:41:45;;;;;;;30.62;17.00;;;;;;;9.37;100.00;99866.52;4174074;83;28529;-87
2023/01/01 20:47:51;;;;;;;28.98;15.68;;;;;;;9.03;100.00;99868.27;4214838;83;28543;-85
2023/01/01 20:53:52;;;;;;;36.63;20.03;;;;;;;9.03;100.00;99869.61;4140307;84;28575;-86
2023/01/01 20:59:53;;;;;;;41.18;23.35;;;;;;;9.01;100.00;99875.70;4125882;84;50892;-86
2023/01/01 21:05:55;;;;;;;41.75;22.65;;;;;;;9.01;100.00;99856.39;4165379;83;28621;-85
2023/01/01 21:11:56;;;;;;;40.03;21.25;;;;;;;9.23;100.00;99866.17;4222905;83;28493;-85
2023/01/01 21:17:58;;;;;;;39.20;21.70;;;;;;;9.13;100.00;99868.72;4219527;83;28577;-87
2023/01/01 21:24:03;;;;;;;40.48;22.77;;;;;;;9.11;100.00;99873.47;4220965;83;28540;-87
2023/01/01 21:30:11;;;;;;;43.30;22.13;;;;;;;9.04;100.00;99880.13;4203205;83;28528;-87
2023/01/01 21:36:22;;;;;;;39.95;22.40;;;;;;;9.24;100.00;99875.88;4197165;83;28531;-89
2023/01/01 21:42:27;;;;;;;45.23;24.90;;;;;;;9.01;100.00;99887.77;4198947;83;28535;-88
2023/01/01 21:48:31;;;;;;;42.08;21.80;;;;;;;8.98;100.00;99870.20;4181831;82;28527;-80
2023/01/01 21:54:35;;;;;;;34.70;20.52;;;;;;;9.12;100.00;99864.39;4183752;83;28517;-80
2023/01/01 22:00:37;;;;;;;38.15;19.80;;;;;;;8.76;100.00;99878.36;4107772;84;28565;-80
2023/01/01 22:06:43;;;;;;;39.13;21.37;;;;;;;8.81;100.00;99875.09;4114207;83;28550;-80
2023/01/01 22:12:45;;;;;;;39.75;22.15;;;;;;;8.89;100.00;99878.92;4212597;82;28517;-81
2023/01/01 22:18:47;;;;;;;38.60;20.30;;;;;;;8.74;100.00;99884.94;4179441;83;28615;-81
2023/01/01 22:24:53;;;;;;;33.58;18.50;;;;;;;8.53;100.00;99877.80;4177102;83;28545;-81
2023/01/01 22:30:56;;;;;;;36.48;18.85;;;;;;;8.36;100.00;99880.77;4175176;82;28563;-82
2023/01/01 22:36:58;;;;;;;41.40;21.95;;;;;;;8.22;100.00;99869.94;4177576;83;28554;-82
2023/01/01 22:43:09;;;;;;;41.45;21.52;;;;;;;8.31;100.00;99871.14;4107771;83;28561;-83
2023/01/01 22:49:18;;;;;;;42.98;22.22;;;;;;;8.24;100.00;99868.41;4182395;81;28550;-84
2023/01/01 22:55:20;;;;;;;36.10;19.95;;;;;;;8.54;100.00;99870.07;4209354;83;28570;-83
2023/01/01 23:01:21;;;;;;;34.48;18.82;;;;;;;8.24;100.00;99867.08;4220939;81;28501;-83
2023/01/01 23:07:22;;;;;;;38.63;20.60;;;;;;;8.02;100.00;99867.12;4211125;83;28552;-82
2023/01/01 23:19:43;;;;;;;39.73;20.02;;;;;;;7.79;100.00;99876.20;4164276;83;29232;-79
2023/01/01 23:25:45;;;;;;;50.25;26.33;;;;;;;7.78;100.00;99873.22;4167758;84;28539;-79
2023/01/01 23:31:46;;;;;;;40.25;20.95;;;;;;;7.89;100.00;99873.72;4159728;84;28580;-79
2023/01/01 23:37:47;;;;;;;45.10;23.22;;;;;;;7.93;100.00;99865.11;4184476;83;28589;-80
2023/01/01 23:43:49;;;;;;;45.15;23.05;;;;;;;7.96;100.00;99867.89;4174038;84;28546;-80
2023/01/01 23:49:53;;;;;;;43.73;22.07;;;;;;;8.05;100.00;99866.73;4147881;84;28498;-82
2023/01/01 23:55:54;;;;;;;46.00;23.47;;;;;;;8.00;100.00;99850.42;4136349;84;28491;-79
